Time;durP1;ratioP1;P1;durP2;ratioP2;P2;SDS_P1;SDS_P2;PMS_P1;PMS_P2;Temp;Humidity;BMP_temperature;BMP_pressure;BME280_temperature;BME280_humidity;BME280_pressure;Samples;Min_cycle;Max_cycle;Signal;HPM_P1;HPM_P2
2022/01/02 00:01:58;;;;;;;5.53;4.50;;;;;;;1.32;100.00;95333.34;4934695;29;20221;-73
2022/01/02 00:04:25;;;;;;;7.80;4.80;;;;;;;1.09;100.00;95331.84;4952516;28;20217;-73
2022/01/02 00:06:53;;;;;;;6.70;4.77;;;;;;;1.38;100.00;95316.44;4958177;28;20625;-72
2022/01/02 00:09:50;;;;;;;6.03;5.00;;;;;;;1.63;100.00;95300.97;4957802;28;20225;-73
2022/01/02 00:12:18;;;;;;;6.37;4.73;;;;;;;1.86;100.00;95309.38;4936855;29;20206;-73
2022/01/02 00:14:47;;;;;;;9.87;5.43;;;;;;;1.64;100.00;95304.44;4955426;28;20205;-73
2022/01/02 00:17:16;;;;;;;8.63;5.40;;;;;;;1.53;100.00;95298.34;4955582;29;20275;-73
2022/01/02 00:19:51;;;;;;;5.90;4.67;;;;;;;1.20;100.00;95308.38;4954375;29;20305;-73
2022/01/02 00:22:19;;;;;;;6.00;4.03;;;;;;;1.02;100.00;95301.50;4937765;29;20626;-73
2022/01/02 00:24:45;;;;;;;5.10;3.90;;;;;;;1.15;100.00;95302.66;4955825;28;20277;-73
2022/01/02 00:27:14;;;;;;;5.43;4.27;;;;;;;1.06;100.00;95302.25;4937828;29;20186;-73
2022/01/02 00:29:42;;;;;;;6.03;5.10;;;;;;;1.01;100.00;95300.75;4934829;29;20206;-72
2022/01/02 00:32:10;;;;;;;9.00;5.57;;;;;;;1.46;100.00;95295.66;4934766;29;20186;-73
2022/01/02 00:34:38;;;;;;;11.00;6.13;;;;;;;1.50;100.00;95283.72;4941357;28;20223;-73
2022/01/02 00:37:05;;;;;;;8.93;6.10;;;;;;;1.53;100.00;95280.25;4968695;28;20197;-72
2022/01/02 00:39:32;;;;;;;9.60;6.13;;;;;;;1.55;100.00;95283.31;4953200;28;20257;-73
2022/01/02 00:42:07;;;;;;;5.87;3.90;;;;;;;1.32;100.00;95277.63;4953893;28;20221;-73
2022/01/02 00:45:00;;;;;;;6.50;4.03;;;;;;;1.24;100.00;95278.78;4954098;28;20260;-72
2022/01/02 00:47:37;;;;;;;5.03;3.73;;;;;;;1.62;100.00;95269.06;4953239;29;20202;-72
2022/01/02 00:50:05;;;;;;;6.47;4.90;;;;;;;1.60;100.00;95279.44;4958152;28;20202;-72
2022/01/02 00:52:35;;;;;;;7.43;4.50;;;;;;;1.43;100.00;95283.75;4951104;29;20675;-72
2022/01/02 00:55:03;;;;;;;7.03;4.93;;;;;;;1.31;100.00;95289.53;4945204;29;20206;-72
2022/01/02 00:57:38;;;;;;;7.27;5.20;;;;;;;1.33;100.00;95294.53;4936336;29;20209;-72
2022/01/02 01:00:06;;;;;;;5.83;3.83;;;;;;;1.02;100.00;95293.41;4952934;29;20221;-72
2022/01/02 01:02:55;;;;;;;5.27;3.73;;;;;;;1.16;100.00;95288.81;4949797;29;20207;-72
2022/01/02 01:05:25;;;;;;;5.40;3.50;;;;;;;1.43;100.00;95278.34;4957488;28;20222;-72
2022/01/02 01:08:09;;;;;;;8.87;4.20;;;;;;;1.50;100.00;95281.03;4950250;29;20201;-72
2022/01/02 01:10:40;;;;;;;10.13;4.63;;;;;;;1.40;100.00;95292.59;4918269;29;20229;-72
2022/01/02 01:13:08;;;;;;;8.30;4.80;;;;;;;1.41;100.00;95277.97;4930873;28;20185;-72
2022/01/02 01:15:37;;;;;;;6.03;4.23;;;;;;;1.42;100.00;95273.38;4958016;28;20276;-72
2022/01/02 01:18:05;;;;;;;6.27;4.17;;;;;;;1.24;100.00;95287.63;4944466;29;20208;-73
2022/01/02 01:20:36;;;;;;;7.23;4.63;;;;;;;1.12;100.00;95292.66;4962151;28;20197;-72
2022/01/02 01:23:02;;;;;;;5.27;3.97;;;;;;;1.29;100.00;95286.47;4925858;29;20202;-72
2022/01/02 01:25:28;;;;;;;5.97;4.60;;;;;;;1.34;100.00;95285.31;4936421;29;20350;-72
2022/01/02 01:27:56;;;;;;;6.87;4.53;;;;;;;0.98;100.00;95282.69;4917848;29;20229;-72
2022/01/02 01:30:25;;;;;;;6.00;4.07;;;;;;;0.94;100.00;95295.38;4964947;28;20208;-72
2022/01/02 01:32:52;;;;;;;5.03;3.60;;;;;;;0.96;100.00;95303.81;4944943;29;20333;-72
2022/01/02 01:35:19;;;;;;;5.13;3.90;;;;;;;1.06;100.00;95286.91;4956741;28;20220;-72
2022/01/02 01:37:45;;;;;;;8.37;4.00;;;;;;;1.24;100.00;95292.22;4971766;28;20216;-72
2022/01/02 01:40:13;;;;;;;9.00;4.93;;;;;;;1.43;100.00;95304.50;4950138;28;20717;-73
2022/01/02 01:42:43;;;;;;;8.63;4.17;;;;;;;1.42;100.00;95305.66;4969323;28;20201;-72
2022/01/02 01:47:49;;;;;;;6.73;4.80;;;;;;;1.33;100.00;95295.31;4969691;28;20316;-72
2022/01/02 01:50:16;;;;;;;5.23;4.03;;;;;;;1.29;100.00;95299.16;4933726;29;20298;-72
2022/01/02 01:52:43;;;;;;;5.77;4.67;;;;;;;1.09;100.00;95288.81;4919643;29;20202;-72
2022/01/02 01:55:09;;;;;;;4.27;3.37;;;;;;;1.06;100.00;95283.44;4920205;29;20296;-72
2022/01/02 01:57:37;;;;;;;5.00;4.03;;;;;;;0.92;100.00;95265.41;4952622;29;20305;-72
2022/01/02 02:00:13;;;;;;;4.43;3.60;;;;;;;0.89;100.00;95258.13;4968648;28;20201;-72
2022/01/02 02:02:44;;;;;;;9.93;4.20;;;;;;;0.79;100.00;95277.72;4933227;29;20684;-72
2022/01/02 02:05:14;;;;;;;5.17;3.87;;;;;;;0.95;100.00;95264.63;4943284;29;20221;-72
2022/01/02 02:07:45;;;;;;;6.00;4.30;;;;;;;1.16;100.00;95275.34;4970898;28;21001;-72
2022/01/02 02:13:14;;;;;;;5.03;4.13;;;;;;;0.68;100.00;95268.13;4929080;29;20295;-72
2022/01/02 02:15:47;;;;;;;4.83;3.77;;;;;;;0.70;100.00;95263.09;4946742;29;20212;-72
2022/01/02 02:18:13;;;;;;;4.63;3.60;;;;;;;0.75;100.00;95260.03;4934131;29;20652;-72
2022/01/02 02:20:38;;;;;;;4.93;4.17;;;;;;;0.72;100.00;95263.50;4935747;29;20240;-72
2022/01/02 02:23:15;;;;;;;4.97;3.70;;;;;;;0.82;100.00;95263.50;4935553;28;20565;-72
2022/01/02 02:25:42;;;;;;;5.77;3.87;;;;;;;0.71;100.00;95256.59;4936037;29;20214;-72
2022/01/02 02:28:13;;;;;;;7.37;4.00;;;;;;;0.80;100.00;95252.34;4952318;29;20556;-72
2022/01/02 02:30:42;;;;;;;6.43;3.83;;;;;;;0.58;100.00;95248.16;4951985;29;20268;-72
2022/01/02 02:33:09;;;;;;;5.20;3.80;;;;;;;0.56;100.00;95244.31;4952710;28;20202;-72
2022/01/02 02:35:37;;;;;;;4.50;3.80;;;;;;;0.43;100.00;95232.41;4961568;28;20579;-72
2022/01/02 02:38:04;;;;;;;5.93;3.80;;;;;;;0.65;100.00;95242.78;4955202;28;20181;-72
2022/01/02 02:40:31;;;;;;;5.07;3.87;;;;;;;0.82;100.00;95233.16;4963812;28;20197;-72
2022/01/02 02:51:08;;;;;;;5.17;3.73;;;;;;;1.01;100.00;95224.66;4917755;29;20197;-72
2022/01/02 02:53:37;;;;;;;5.67;3.60;;;;;;;1.11;100.00;95221.19;4951873;28;20229;-72
2022/01/02 02:58:50;;;;;;;4.57;3.60;;;;;;;1.29;100.00;95208.44;4936062;29;20288;-72
2022/01/02 03:01:19;;;;;;;5.23;3.63;;;;;;;1.35;100.00;95212.28;4939957;28;20210;-72
2022/01/02 03:03:46;;;;;;;4.03;3.60;;;;;;;1.25;100.00;95194.25;4941887;28;20304;-72
2022/01/02 03:06:13;;;;;;;4.90;3.83;;;;;;;1.22;100.00;95203.84;4940663;29;20192;-72
2022/01/02 03:08:41;;;;;;;5.70;4.03;;;;;;;0.95;100.00;95194.72;4943611;29;20277;-72
2022/01/02 03:11:12;;;;;;;5.43;3.00;;;;;;;1.08;100.00;95192.38;4948103;29;20195;-72
2022/01/02 03:13:38;;;;;;;5.30;3.00;;;;;;;0.84;100.00;95223.56;4932847;29;20300;-72
2022/01/02 03:16:04;;;;;;;4.60;3.60;;;;;;;0.76;100.00;95208.59;4950061;29;20605;-72
2022/01/02 03:18:33;;;;;;;3.57;3.03;;;;;;;0.62;100.00;95218.59;4950154;29;20197;-72
2022/01/02 03:20:59;;;;;;;4.60;3.53;;;;;;;0.84;100.00;95193.22;4951823;29;20237;-72
2022/01/02 03:23:25;;;;;;;5.60;3.13;;;;;;;0.90;100.00;95194.38;4931934;29;20230;-72
2022/01/02 03:25:52;;;;;;;3.10;2.80;;;;;;;0.93;100.00;95188.22;4932009;29;20614;-72
2022/01/02 03:28:20;;;;;;;4.27;3.00;;;;;;;1.00;100.00;95180.88;4932612;29;20197;-72
2022/01/02 03:30:46;;;;;;;3.47;3.17;;;;;;;0.97;100.00;95167.44;4916060;29;20226;-72
2022/01/02 03:33:12;;;;;;;5.63;3.57;;;;;;;1.09;100.00;95173.16;4935040;28;20270;-72
2022/01/02 03:35:38;;;;;;;5.50;3.17;;;;;;;1.07;100.00;95172.00;4962705;28;20190;-72
2022/01/02 03:38:05;;;;;;;4.33;3.20;;;;;;;1.17;100.00;95163.91;4938860;28;20189;-73
2022/01/02 03:40:30;;;;;;;3.47;3.07;;;;;;;1.27;100.00;95161.56;4937300;28;20199;-72
2022/01/02 03:42:57;;;;;;;4.50;3.43;;;;;;;0.96;100.00;95163.22;4948870;28;20272;-73
2022/01/02 03:45:22;;;;;;;4.80;3.20;;;;;;;0.97;100.00;95154.00;4953246;28;20217;-73
2022/01/02 03:47:48;;;;;;;4.47;3.27;;;;;;;0.88;100.00;95153.66;4955894;28;20259;-72
2022/01/02 03:50:15;;;;;;;3.47;3.03;;;;;;;0.85;100.00;95154.41;4972223;28;20219;-72
2022/01/02 03:52:41;;;;;;;3.50;2.80;;;;;;;0.96;100.00;95155.16;4959437;28;20252;-72
2022/01/02 03:55:08;;;;;;;3.50;3.00;;;;;;;0.82;100.00;95141.75;4969185;28;20213;-72
2022/01/02 03:57:34;;;;;;;5.63;3.10;;;;;;;0.80;100.00;95142.16;4947081;29;20293;-73
2022/01/02 04:00:08;;;;;;;3.83;2.87;;;;;;;0.94;100.00;95142.09;4959671;28;20201;-72
2022/01/02 04:02:40;;;;;;;3.20;2.83;;;;;;;0.68;100.00;95137.19;4967137;28;20196;-73
2022/01/02 04:05:09;;;;;;;4.73;3.07;;;;;;;0.76;100.00;95133.34;4960963;28;20695;-72
2022/01/02 04:07:36;;;;;;;3.30;3.00;;;;;;;0.78;100.00;95122.19;4949563;29;20281;-72
2022/01/02 04:10:05;;;;;;;4.83;3.60;;;;;;;0.85;100.00;95131.00;4954508;29;20194;-72
2022/01/02 04:12:33;;;;;;;4.07;3.00;;;;;;;0.71;100.00;95122.97;4940596;28;20252;-73
2022/01/02 04:14:58;;;;;;;5.33;2.90;;;;;;;0.49;100.00;95120.72;4962662;28;20224;-73
2022/01/02 04:17:25;;;;;;;4.53;3.33;;;;;;;0.57;100.00;95123.03;4955047;28;20200;-72
2022/01/02 04:19:51;;;;;;;3.30;2.87;;;;;;;0.45;100.00;95126.13;4974766;28;20197;-72
2022/01/02 04:22:17;;;;;;;3.10;2.80;;;;;;;0.60;100.00;95118.78;4948013;29;20205;-72
2022/01/02 04:24:43;;;;;;;3.67;2.83;;;;;;;0.67;100.00;95118.75;4962386;28;20738;-72
2022/01/02 04:27:11;;;;;;;3.60;2.90;;;;;;;0.68;100.00;95109.56;4953761;29;20209;-72
2022/01/02 04:29:37;;;;;;;3.93;2.60;;;;;;;0.32;100.00;95103.50;4938262;28;20724;-72
2022/01/02 04:32:03;;;;;;;4.40;3.10;;;;;;;0.40;100.00;95104.25;4964512;28;20195;-72
2022/01/02 04:34:32;;;;;;;4.10;3.20;;;;;;;0.16;100.00;95110.41;4957531;28;20625;-72
2022/01/02 04:36:58;;;;;;;4.33;3.20;;;;;;;0.15;100.00;95087.41;4956813;28;20181;-72
2022/01/02 04:39:24;;;;;;;3.20;2.67;;;;;;;0.63;100.00;95089.22;4951829;28;20621;-72
2022/01/02 04:41:50;;;;;;;5.37;3.10;;;;;;;0.86;100.00;95100.28;4918851;29;20261;-73
2022/01/02 04:44:15;;;;;;;3.80;2.80;;;;;;;0.81;100.00;95086.47;4935155;29;20587;-72
2022/01/02 04:46:41;;;;;;;5.67;2.87;;;;;;;0.69;100.00;95101.09;4950700;29;20196;-72
2022/01/02 04:49:07;;;;;;;6.67;3.23;;;;;;;0.57;100.00;95098.06;4953658;29;20852;-73
2022/01/02 04:51:32;;;;;;;3.63;3.20;;;;;;;0.25;100.00;95095.47;4940648;29;20201;-73
2022/01/02 04:53:59;;;;;;;3.60;3.10;;;;;;;0.30;100.00;95089.69;4935076;29;20210;-73
2022/01/02 04:56:24;;;;;;;3.90;3.00;;;;;;;0.29;100.00;95095.44;4950528;29;20721;-73
2022/01/02 04:58:50;;;;;;;3.13;2.40;;;;;;;0.17;100.00;95088.53;4933065;29;20190;-73
2022/01/02 05:01:16;;;;;;;2.77;2.40;;;;;;;0.14;100.00;95091.25;4958259;28;20626;-73
2022/01/02 05:03:43;;;;;;;4.00;3.10;;;;;;;-0.15;100.00;95093.16;4955682;28;20281;-72
2022/01/02 05:06:11;;;;;;;2.93;2.30;;;;;;;-0.13;100.00;95088.97;4973131;28;20189;-72
2022/01/02 05:08:37;;;;;;;3.83;2.40;;;;;;;-0.17;100.00;95090.13;4921808;29;20265;-72
2022/01/02 05:11:04;;;;;;;3.83;3.00;;;;;;;0.10;100.00;95090.47;4934178;29;20277;-72
2022/01/02 05:13:30;;;;;;;4.17;2.70;;;;;;;0.27;100.00;95100.44;4934610;29;20211;-72
2022/01/02 05:15:56;;;;;;;5.37;2.30;;;;;;;0.12;100.00;95088.19;4946945;29;20272;-72
2022/01/02 05:18:22;;;;;;;2.97;2.60;;;;;;;0.22;100.00;95082.03;4937361;29;20297;-72
2022/01/02 05:20:48;;;;;;;2.97;2.23;;;;;;;0.34;100.00;95085.06;4937214;29;20186;-72
2022/01/02 05:23:14;;;;;;;4.33;2.57;;;;;;;0.34;100.00;95084.31;4932529;28;20223;-72
2022/01/02 05:25:39;;;;;;;3.20;2.40;;;;;;;0.29;100.00;95082.03;4952347;29;20264;-72
2022/01/02 05:28:05;;;;;;;2.53;2.33;;;;;;;0.40;100.00;95075.47;4952978;29;20197;-72
2022/01/02 05:30:31;;;;;;;4.07;2.37;;;;;;;0.36;100.00;95077.38;4952751;28;20221;-72
2022/01/02 05:32:57;;;;;;;2.47;2.17;;;;;;;0.18;100.00;95067.84;4961316;28;20237;-72
2022/01/02 05:35:23;;;;;;;2.27;2.07;;;;;;;0.21;100.00;95064.38;4954046;28;20210;-72
2022/01/02 05:37:49;;;;;;;2.70;2.40;;;;;;;0.05;100.00;95062.13;4957726;28;20278;-72
2022/01/02 05:40:14;;;;;;;3.20;2.53;;;;;;;0.01;100.00;95058.66;4949942;29;20262;-72
2022/01/02 05:42:40;;;;;;;4.20;2.50;;;;;;;-0.07;100.00;95063.25;4955149;28;20185;-72
2022/01/02 05:45:07;;;;;;;4.33;2.93;;;;;;;-0.28;100.00;95065.97;4966272;28;20202;-72
2022/01/02 05:47:33;;;;;;;3.97;2.43;;;;;;;0.12;100.00;95051.34;4932381;29;20193;-72
2022/01/02 05:49:58;;;;;;;3.33;2.70;;;;;;;-0.01;100.00;95058.28;4924827;29;20209;-72
2022/01/02 05:52:24;;;;;;;3.53;2.27;;;;;;;0.11;100.00;95046.34;4948634;29;20199;-72
2022/01/02 05:54:50;;;;;;;3.83;2.47;;;;;;;0.03;100.00;95051.00;4918102;29;20202;-72
2022/01/02 05:57:16;;;;;;;2.40;1.80;;;;;;;0.03;100.00;95055.59;4933268;29;20205;-72
2022/01/02 05:59:41;;;;;;;2.40;1.90;;;;;;;0.10;100.00;95042.94;4921997;28;20205;-72
2022/01/02 06:02:07;;;;;;;2.57;2.27;;;;;;;0.15;100.00;95045.22;4963254;28;20194;-72
2022/01/02 06:04:33;;;;;;;3.03;2.43;;;;;;;-0.10;100.00;95034.50;4951703;28;20309;-72
2022/01/02 06:07:00;;;;;;;2.53;2.10;;;;;;;-0.26;100.00;95044.88;4932497;28;20190;-72
2022/01/02 06:09:26;;;;;;;3.57;2.20;;;;;;;-0.24;100.00;95037.19;4917870;29;20198;-72
2022/01/02 06:11:52;;;;;;;4.80;2.40;;;;;;;0.03;100.00;95042.16;4933001;29;20190;-72
2022/01/02 06:14:19;;;;;;;2.83;2.20;;;;;;;-0.04;100.00;95032.97;4935454;29;20217;-73
2022/01/02 06:16:45;;;;;;;2.57;1.80;;;;;;;0.37;100.00;95037.88;4933544;29;20281;-72
2022/01/02 06:19:11;;;;;;;2.37;2.10;;;;;;;0.15;100.00;95015.69;4947323;29;20289;-72
2022/01/02 06:21:37;;;;;;;3.00;2.10;;;;;;;0.32;100.00;95043.63;4933216;29;20187;-72
2022/01/02 06:24:02;;;;;;;2.73;2.37;;;;;;;0.23;100.00;95044.03;4952416;28;20765;-72
2022/01/02 06:26:28;;;;;;;5.23;2.70;;;;;;;0.30;100.00;95038.66;4952153;28;20248;-72
2022/01/02 06:28:54;;;;;;;1.97;1.73;;;;;;;-0.09;100.00;95038.75;4952005;29;20273;-72
2022/01/02 06:31:20;;;;;;;4.07;1.73;;;;;;;0.25;100.00;95044.44;4947930;29;20229;-72
2022/01/02 06:33:46;;;;;;;3.00;1.83;;;;;;;0.29;100.00;95037.09;4986616;28;20223;-72
2022/01/02 06:36:12;;;;;;;2.80;1.93;;;;;;;0.29;100.00;95045.16;4971594;28;20177;-72
2022/01/02 06:38:38;;;;;;;3.07;1.87;;;;;;;0.26;100.00;95027.16;4972659;28;20177;-72
2022/01/02 06:41:04;;;;;;;2.20;1.90;;;;;;;0.32;100.00;95035.59;4951698;28;20658;-72
2022/01/02 06:43:32;;;;;;;3.10;2.03;;;;;;;0.20;100.00;95038.69;4971971;28;20217;-72
2022/01/02 06:45:58;;;;;;;6.27;2.20;;;;;;;0.19;100.00;95034.47;4942255;29;20620;-72
2022/01/02 06:48:24;;;;;;;2.37;2.10;;;;;;;0.51;100.00;95037.84;4935664;29;20201;-72
2022/01/02 06:50:49;;;;;;;4.00;2.00;;;;;;;0.38;100.00;95042.06;4948352;28;20197;-72
2022/01/02 06:53:15;;;;;;;2.77;1.93;;;;;;;0.39;100.00;95046.31;4933080;29;20617;-72
2022/01/02 06:55:41;;;;;;;3.23;2.13;;;;;;;0.50;100.00;95030.91;4933860;29;20194;-72
2022/01/02 06:58:07;;;;;;;2.30;1.90;;;;;;;0.63;100.00;95027.41;4932622;29;20713;-72
2022/01/02 07:00:33;;;;;;;2.23;1.73;;;;;;;0.46;100.00;95038.97;4949696;28;20592;-72
2022/01/02 07:02:59;;;;;;;4.10;2.23;;;;;;;0.41;100.00;95047.44;4964281;28;20316;-72
2022/01/02 07:05:25;;;;;;;2.07;1.87;;;;;;;0.32;100.00;95040.97;4955295;28;20914;-72
2022/01/02 07:07:52;;;;;;;2.80;2.13;;;;;;;0.33;100.00;95042.47;4958789;28;20658;-72
2022/01/02 07:10:20;;;;;;;3.23;2.13;;;;;;;0.19;100.00;95040.59;4951953;29;20186;-72
2022/01/02 07:12:45;;;;;;;4.47;1.80;;;;;;;0.27;100.00;95030.59;4951881;29;20190;-72
2022/01/02 07:15:11;;;;;;;3.93;2.20;;;;;;;0.59;100.00;95040.09;4951518;28;20208;-72
2022/01/02 07:17:37;;;;;;;3.00;2.00;;;;;;;0.75;100.00;95026.97;4945502;28;20205;-72
2022/01/02 07:20:08;;;;;;;3.27;1.80;;;;;;;0.99;100.00;95023.41;4953116;28;20200;-72
2022/01/02 07:22:34;;;;;;;2.90;1.90;;;;;;;1.18;100.00;95030.19;4953274;29;20257;-72
2022/01/02 07:24:59;;;;;;;2.10;1.90;;;;;;;0.92;100.00;95031.50;4955177;28;20214;-72
2022/01/02 07:27:25;;;;;;;3.63;2.10;;;;;;;1.22;100.00;95044.41;4956591;28;20186;-72
2022/01/02 07:29:51;;;;;;;2.00;1.80;;;;;;;0.94;100.00;95026.50;4960061;28;20185;-72
2022/01/02 07:32:20;;;;;;;2.27;1.83;;;;;;;1.07;100.00;95046.41;4962695;28;20281;-72
2022/01/02 07:34:45;;;;;;;1.93;1.60;;;;;;;0.94;100.00;95031.09;4963164;28;20289;-72
2022/01/02 07:37:11;;;;;;;2.00;1.80;;;;;;;1.11;100.00;95033.69;4956119;29;20260;-72
2022/01/02 07:39:37;;;;;;;2.50;1.57;;;;;;;1.08;100.00;95039.88;4945986;29;20281;-72
2022/01/02 07:42:03;;;;;;;2.37;1.60;;;;;;;1.16;100.00;95045.97;4961988;28;20248;-72
2022/01/02 07:44:37;;;;;;;1.93;1.73;;;;;;;1.21;100.00;95035.56;4956984;28;20218;-72
2022/01/02 07:47:07;;;;;;;1.73;1.53;;;;;;;1.26;100.00;95031.69;4954157;29;20199;-72
2022/01/02 07:49:32;;;;;;;1.57;1.30;;;;;;;1.34;100.00;95024.34;4946046;28;20194;-72
2022/01/02 07:51:58;;;;;;;2.93;1.67;;;;;;;1.49;100.00;95025.78;4936794;29;20286;-72
2022/01/02 07:54:23;;;;;;;2.80;1.80;;;;;;;1.69;100.00;95027.53;4937160;29;20242;-73
2022/01/02 07:56:49;;;;;;;2.77;2.20;;;;;;;1.72;100.00;95024.03;4945893;29;20198;-72
2022/01/02 07:59:15;;;;;;;5.83;4.03;;;;;;;1.72;100.00;95021.34;4952726;28;20198;-72
2022/01/02 08:01:40;;;;;;;6.37;4.10;;;;;;;1.89;100.00;95019.66;4950046;28;20332;-72
2022/01/02 08:04:06;;;;;;;3.47;2.70;;;;;;;1.84;100.00;95025.47;4938782;29;20205;-72
2022/01/02 08:06:31;;;;;;;3.63;2.33;;;;;;;1.97;100.00;95016.50;4954539;29;20200;-72
2022/01/02 08:08:57;;;;;;;2.83;1.80;;;;;;;1.94;100.00;95009.22;4946958;28;20234;-72
2022/01/02 08:11:23;;;;;;;2.20;1.90;;;;;;;2.04;100.00;95013.75;4936538;29;20191;-72
2022/01/02 08:13:48;;;;;;;2.20;2.00;;;;;;;2.23;100.00;95017.81;4953182;28;20277;-72
2022/01/02 08:16:14;;;;;;;2.40;1.97;;;;;;;2.02;100.00;95015.34;4955143;28;20190;-72
2022/01/02 08:18:40;;;;;;;3.03;2.30;;;;;;;2.01;100.00;95030.72;4942715;28;20697;-72
2022/01/02 08:21:07;;;;;;;2.00;1.80;;;;;;;1.74;100.00;95020.94;4935083;29;20191;-72
2022/01/02 08:23:33;;;;;;;2.97;2.20;;;;;;;1.79;100.00;95010.53;4951819;28;20293;-72
2022/01/02 08:25:59;;;;;;;3.50;2.67;;;;;;;2.17;100.00;95019.41;4955086;29;20294;-72
2022/01/02 08:28:25;;;;;;;3.83;2.87;;;;;;;2.06;100.00;95019.50;4955553;29;20194;-72
2022/01/02 08:30:51;;;;;;;3.73;2.50;;;;;;;1.94;100.00;95011.16;4960502;28;20774;-72
2022/01/02 08:33:18;;;;;;;2.37;1.77;;;;;;;2.09;100.00;95015.25;4968520;28;20185;-72
2022/01/02 08:35:44;;;;;;;2.83;2.07;;;;;;;2.24;100.00;95000.50;4974667;28;20647;-72
2022/01/02 08:38:12;;;;;;;2.10;1.90;;;;;;;2.59;100.00;95016.25;4973177;28;20796;-72
2022/01/02 08:40:39;;;;;;;2.10;1.90;;;;;;;2.60;100.00;95012.38;4944434;28;20571;-72
2022/01/02 08:43:06;;;;;;;4.50;2.30;;;;;;;2.78;100.00;95012.19;4974909;28;20555;-72
2022/01/02 08:45:32;;;;;;;2.90;2.43;;;;;;;2.81;100.00;95012.13;4963562;28;20741;-72
2022/01/02 08:47:58;;;;;;;3.70;2.20;;;;;;;2.77;100.00;95007.94;4951027;28;20190;-72
2022/01/02 08:50:23;;;;;;;4.90;2.20;;;;;;;3.03;100.00;94999.13;4934705;29;20221;-72
2022/01/02 08:52:49;;;;;;;2.77;2.03;;;;;;;3.19;100.00;94996.59;4934861;29;20696;-72
2022/01/02 08:55:15;;;;;;;4.93;2.40;;;;;;;3.32;100.00;95011.06;4934020;29;20759;-72
2022/01/02 08:57:41;;;;;;;3.13;2.47;;;;;;;3.43;100.00;95022.44;4950226;29;20740;-72
2022/01/02 09:00:08;;;;;;;3.03;2.30;;;;;;;3.50;100.00;95000.75;4946615;28;20212;-72
2022/01/02 09:02:33;;;;;;;2.17;1.97;;;;;;;3.58;100.00;94999.50;4965705;28;20224;-72
2022/01/02 09:04:59;;;;;;;2.80;2.50;;;;;;;3.65;100.00;94994.72;4973874;28;20707;-72
2022/01/02 09:07:25;;;;;;;3.73;2.57;;;;;;;3.59;100.00;95004.47;4950665;28;20628;-72
2022/01/02 09:09:50;;;;;;;4.40;2.63;;;;;;;3.56;100.00;94999.88;4935496;29;20632;-72
2022/01/02 09:12:16;;;;;;;2.83;2.20;;;;;;;3.63;100.00;95005.16;4934323;29;20542;-72
2022/01/02 09:14:43;;;;;;;3.03;2.70;;;;;;;3.59;100.00;95001.78;4949767;28;20367;-72
2022/01/02 09:17:09;;;;;;;5.73;3.10;;;;;;;3.49;100.00;94988.44;4945963;28;20256;-72
2022/01/02 09:19:34;;;;;;;4.40;3.77;;;;;;;3.35;100.00;94988.66;4954414;28;20201;-72
2022/01/02 09:22:00;;;;;;;4.33;2.73;;;;;;;3.33;100.00;94985.59;4944659;29;20253;-72
2022/01/02 09:24:25;;;;;;;2.77;2.20;;;;;;;3.12;100.00;94981.25;4935138;29;20697;-72
2022/01/02 09:26:51;;;;;;;4.10;2.97;;;;;;;3.40;100.00;94988.19;4966442;28;20202;-72
2022/01/02 09:29:17;;;;;;;2.60;2.03;;;;;;;3.52;100.00;94984.91;4953531;29;20189;-72
2022/01/02 09:31:43;;;;;;;2.67;2.10;;;;;;;3.73;100.00;94987.28;4961254;28;20198;-72
2022/01/02 09:34:08;;;;;;;3.23;2.23;;;;;;;3.94;100.00;94986.91;4973804;28;20348;-72
2022/01/02 09:36:35;;;;;;;4.30;2.27;;;;;;;4.12;100.00;94981.22;4944881;29;20252;-72
2022/01/02 09:39:00;;;;;;;2.73;2.10;;;;;;;4.30;100.00;94989.75;4952636;29;20186;-72
2022/01/02 09:41:26;;;;;;;2.80;1.97;;;;;;;4.46;100.00;94993.28;4946132;28;20213;-72
2022/01/02 09:43:52;;;;;;;1.83;1.67;;;;;;;4.68;100.00;94996.38;4953290;28;20216;-72
2022/01/02 09:46:20;;;;;;;2.30;2.00;;;;;;;4.88;100.00;95003.31;4953195;28;20300;-72
2022/01/02 09:48:47;;;;;;;1.90;1.47;;;;;;;5.05;100.00;94998.69;4953406;28;20265;-73
2022/01/02 09:51:14;;;;;;;2.43;1.50;;;;;;;5.30;100.00;94993.50;4950865;29;20466;-72
2022/01/02 09:53:39;;;;;;;4.07;2.17;;;;;;;5.56;100.00;94997.94;4952248;28;20213;-72
2022/01/02 09:56:05;;;;;;;3.67;2.13;;;;;;;5.72;100.00;94997.94;4953008;28;20186;-73
2022/01/02 09:58:33;;;;;;;2.90;2.10;;;;;;;5.80;100.00;95002.00;4953184;28;20330;-73
2022/01/02 10:00:59;;;;;;;3.23;2.30;;;;;;;5.81;100.00;94989.22;4959123;28;20194;-73
2022/01/02 10:03:24;;;;;;;2.50;1.90;;;;;;;5.62;100.00;94984.63;4969274;28;20719;-73
2022/01/02 10:05:54;;;;;;;2.60;2.00;;;;;;;5.55;100.00;94977.44;4971408;28;20213;-73
2022/01/02 10:08:23;;;;;;;2.27;1.90;;;;;;;5.34;100.00;94988.78;4956177;28;20206;-73
2022/01/02 10:10:58;;;;;;;2.57;2.37;;;;;;;5.33;100.00;94989.19;4932532;29;20247;-73
2022/01/02 10:13:45;;;;;;;4.67;2.40;;;;;;;5.34;100.00;94982.59;4952485;28;20201;-73
2022/01/02 10:16:23;;;;;;;4.60;2.40;;;;;;;5.62;100.00;94981.94;4952687;28;20182;-73
2022/01/02 10:18:52;;;;;;;2.53;2.00;;;;;;;8.00;100.00;94977.16;4947005;28;20206;-73
2022/01/02 10:21:36;;;;;;;3.87;2.07;;;;;;;7.45;100.00;94968.84;4947839;29;20194;-72
2022/01/02 10:24:17;;;;;;;1.73;1.63;;;;;;;7.69;100.00;94954.44;4948468;28;20225;-73
2022/01/02 10:27:13;;;;;;;2.53;2.13;;;;;;;7.26;100.00;94956.97;4919338;29;20189;-73
2022/01/02 10:29:46;;;;;;;2.80;1.57;;;;;;;8.06;99.61;94959.06;4948169;28;20269;-73
2022/01/02 10:32:32;;;;;;;2.00;1.80;;;;;;;7.93;97.75;94952.13;4962337;28;20192;-73
2022/01/02 10:35:21;;;;;;;1.67;1.37;;;;;;;8.28;88.95;94951.00;4972190;28;20200;-73
2022/01/02 10:37:57;;;;;;;3.57;1.40;;;;;;;8.94;81.12;94953.28;4930450;29;20190;-73
2022/01/02 10:40:32;;;;;;;2.00;1.60;;;;;;;8.99;80.76;94960.13;4932008;29;20638;-73
2022/01/02 10:42:59;;;;;;;1.23;1.13;;;;;;;8.57;75.33;94953.47;4933772;29;20269;-73
2022/01/02 10:45:36;;;;;;;1.10;0.80;;;;;;;8.28;71.63;94962.59;4939320;29;20264;-71
2022/01/02 10:48:06;;;;;;;1.33;1.23;;;;;;;8.13;71.03;94941.72;4944003;29;20204;-72
2022/01/02 10:50:32;;;;;;;1.20;1.10;;;;;;;8.15;73.60;94951.00;4952649;28;20613;-72
2022/01/02 10:53:11;;;;;;;1.80;1.40;;;;;;;8.17;74.51;94945.88;4931754;29;20185;-72
2022/01/02 10:55:37;;;;;;;2.07;1.80;;;;;;;8.04;83.73;94944.38;4917435;29;20182;-71
2022/01/02 10:58:07;;;;;;;1.37;1.23;;;;;;;7.84;83.44;94938.47;4937246;29;20214;-73
2022/01/02 11:00:33;;;;;;;4.50;1.93;;;;;;;7.88;83.93;94948.00;4944716;28;20249;-72
2022/01/02 11:02:59;;;;;;;5.80;3.60;;;;;;;7.86;91.70;94936.81;4961247;28;20244;-71
2022/01/02 11:05:28;;;;;;;6.30;3.40;;;;;;;7.77;94.75;94930.53;4954864;28;20292;-73
2022/01/02 11:07:59;;;;;;;3.03;2.53;;;;;;;7.72;94.04;94934.53;4955840;28;20197;-73
2022/01/02 11:10:31;;;;;;;7.20;2.80;;;;;;;7.75;97.07;94944.56;4954539;28;20194;-71
2022/01/02 11:12:57;;;;;;;5.20;2.00;;;;;;;7.76;98.02;94935.19;4955090;29;20209;-73
2022/01/02 11:15:25;;;;;;;2.10;1.90;;;;;;;7.77;100.00;94927.81;4954245;29;20218;-71
2022/01/02 11:17:51;;;;;;;2.50;2.00;;;;;;;7.79;100.00;94928.88;4950412;29;20191;-71
2022/01/02 11:20:29;;;;;;;1.80;1.67;;;;;;;7.66;100.00;94932.81;4930553;29;20276;-71
2022/01/02 11:23:14;;;;;;;2.43;1.87;;;;;;;7.55;100.00;94932.41;4950767;29;20644;-74
2022/01/02 11:25:51;;;;;;;1.87;1.40;;;;;;;7.58;100.00;94932.31;4951260;29;20238;-74
2022/01/02 11:28:25;;;;;;;1.40;1.23;;;;;;;7.98;91.52;94921.66;4935499;29;20237;-71
2022/01/02 11:30:54;;;;;;;1.00;1.00;;;;;;;8.23;83.69;94908.00;4960102;28;20190;-72
2022/01/02 11:33:30;;;;;;;4.80;1.00;;;;;;;8.45;79.80;94904.09;4969439;28;20236;-71
2022/01/02 11:35:59;;;;;;;1.50;1.00;;;;;;;8.55;80.59;94905.66;4949033;28;20201;-73
2022/01/02 11:38:26;;;;;;;1.20;0.83;;;;;;;8.60;77.51;94898.16;4955407;28;20190;-71
2022/01/02 11:40:57;;;;;;;1.83;0.90;;;;;;;8.75;74.33;94891.75;4947176;28;20230;-72
2022/01/02 11:43:35;;;;;;;1.33;0.80;;;;;;;8.83;78.83;94906.59;4919258;29;20535;-72
2022/01/02 11:46:19;;;;;;;1.33;1.00;;;;;;;8.92;76.62;94898.50;4948586;29;20220;-72
2022/01/02 11:49:04;;;;;;;0.60;0.60;;;;;;;9.20;69.96;94886.50;4955034;28;20201;-72
2022/01/02 11:51:55;;;;;;;0.60;0.60;;;;;;;9.43;68.58;94886.00;4942871;28;20205;-73
2022/01/02 11:54:31;;;;;;;0.90;0.67;;;;;;;9.47;70.60;94889.31;4952480;28;20711;-73
2022/01/02 11:57:02;;;;;;;1.40;1.17;;;;;;;9.31;80.69;94877.91;4954775;28;20272;-72